Time;durP1;ratioP1;P1;durP2;ratioP2;P2;SDS_P1;SDS_P2;PMS_P1;PMS_P2;Temp;Humidity;BMP_temperature;BMP_pressure;BME280_temperature;BME280_humidity;BME280_pressure;Samples;Min_cycle;Max_cycle;Signal;HPM_P1;HPM_P2
2023/06/18 00:04:25;;;;;;;;;;;;;;;22.98;48.20898;101433.8;;;;-70
2023/06/18 00:09:28;;;;;;;;;;;;;;;22.95;48.57324;101435.5;;;;-70
2023/06/18 00:14:25;;;;;;;;;;;;;;;22.91;47.91406;101434.5;;;;-67
2023/06/18 00:19:25;;;;;;;;;;;;;;;22.86;48.38086;101430.1;;;;-67
2023/06/18 00:21:37;;;;;;;0.2;0.1;;;;;;;;;;;;;-68
2023/06/18 00:24:25;;;;;;;;;;;;;;;22.84;48.2627;101431;;;;-69
2023/06/18 00:29:26;;;;;;;;;;;;;;;22.8;48.34961;101434.8;;;;-68
2023/06/18 00:34:32;;;;;;;;;;;;;;;22.74;48.37891;101435.2;;;;-68
2023/06/18 00:39:25;;;;;;;;;;;;;;;22.73;47.86035;101434.1;;;;-68
2023/06/18 00:44:25;;;;;;;;;;;;;;;22.69;48.53418;101427.8;;;;-68
2023/06/18 00:49:25;;;;;;;;;;;;;;;22.64;48.36719;101426;;;;-68
2023/06/18 00:51:44;;;;;;;0.5;0.1;;;;;;;;;;;;;-67
2023/06/18 00:54:27;;;;;;;;;;;;;;;22.6;48.17969;101429.1;;;;-67
2023/06/18 00:59:27;;;;;;;;;;;;;;;22.57;48.10742;101427.9;;;;-67
2023/06/18 01:04:27;;;;;;;;;;;;;;;22.52;48.37695;101423.4;;;;-69
2023/06/18 01:09:26;;;;;;;;;;;;;;;22.49;47.77734;101420.9;;;;-67
2023/06/18 01:14:30;;;;;;;;;;;;;;;22.47;47.80957;101419.8;;;;-68
2023/06/18 01:19:38;;;;;;;;;;;;;;;22.43;47.40332;101415.7;;;;-69
2023/06/18 01:21:47;;;;;;;0.6;0.4;;;;;;;;;;;;;-67
2023/06/18 01:24:27;;;;;;;;;;;;;;;22.35;47.25684;101409.1;;;;-69
2023/06/18 01:29:28;;;;;;;;;;;;;;;22.3;47.34473;101405.9;;;;-67
2023/06/18 01:34:27;;;;;;;;;;;;;;;22.22;47.46191;101403;;;;-68
2023/06/18 01:39:29;;;;;;;;;;;;;;;22.16;47.70898;101403.1;;;;-67
2023/06/18 01:44:26;;;;;;;;;;;;;;;22.08;47.26367;101406.7;;;;-68
2023/06/18 01:49:26;;;;;;;;;;;;;;;22.02;47.50977;101399.3;;;;-68
2023/06/18 01:51:49;;;;;;;0.3;0.1;;;;;;;;;;;;;-68
2023/06/18 01:54:26;;;;;;;;;;;;;;;21.93;47.22461;101393.2;;;;-69
2023/06/18 01:59:25;;;;;;;;;;;;;;;21.86;47.27441;101393.8;;;;-68
2023/06/18 02:04:25;;;;;;;;;;;;;;;21.77;47.40234;101391.3;;;;-68
2023/06/18 02:09:25;;;;;;;;;;;;;;;21.7;47.3252;101383.5;;;;-69
2023/06/18 02:14:25;;;;;;;;;;;;;;;21.62;47.06543;101380.7;;;;-68
2023/06/18 02:19:25;;;;;;;;;;;;;;;21.54;47.06934;101374.5;;;;-68
2023/06/18 02:21:50;;;;;;;0.2;0.1;;;;;;;;;;;;;-67
2023/06/18 02:24:25;;;;;;;;;;;;;;;21.48;47.2793;101372.4;;;;-68
2023/06/18 02:29:25;;;;;;;;;;;;;;;21.46;47.24414;101368.5;;;;-68
2023/06/18 02:34:28;;;;;;;;;;;;;;;21.36;47.00391;101367.2;;;;-68
2023/06/18 02:39:25;;;;;;;;;;;;;;;21.3;46.97461;101369.2;;;;-69
2023/06/18 02:44:28;;;;;;;;;;;;;;;21.26;46.96973;101366.3;;;;-68
2023/06/18 02:49:25;;;;;;;;;;;;;;;21.21;46.94238;101369.4;;;;-68
2023/06/18 02:51:54;;;;;;;0.3;0.1;;;;;;;;;;;;;-68
2023/06/18 02:54:25;;;;;;;;;;;;;;;21.14;46.92383;101371.2;;;;-68
2023/06/18 02:59:26;;;;;;;;;;;;;;;21.07;46.8125;101368.2;;;;-69
2023/06/18 03:04:28;;;;;;;;;;;;;;;21.03;47.04883;101353.8;;;;-67
2023/06/18 03:09:25;;;;;;;;;;;;;;;20.95;47.0752;101354.8;;;;-67
2023/06/18 03:14:25;;;;;;;;;;;;;;;20.91;47.5625;101357.1;;;;-67
2023/06/18 03:19:25;;;;;;;;;;;;;;;20.87;47.12305;101361.1;;;;-68
2023/06/18 03:21:59;;;;;;;0.2;0.1;;;;;;;;;;;;;-69
2023/06/18 03:24:26;;;;;;;;;;;;;;;20.83;47.03906;101360.8;;;;-68
2023/06/18 03:29:25;;;;;;;;;;;;;;;20.79;47.03613;101364.2;;;;-68
2023/06/18 03:34:26;;;;;;;;;;;;;;;20.77;47.34277;101364.7;;;;-69
2023/06/18 03:39:26;;;;;;;;;;;;;;;20.71;47.57715;101359.9;;;;-68
2023/06/18 03:44:25;;;;;;;;;;;;;;;20.66;47.20508;101362.5;;;;-67
2023/06/18 03:49:25;;;;;;;;;;;;;;;20.64;47.17969;101363.7;;;;-70
2023/06/18 03:52:00;;;;;;;0.2;0;;;;;;;;;;;;;-70
2023/06/18 03:54:26;;;;;;;;;;;;;;;20.63;47.29297;101365.7;;;;-69
2023/06/18 03:59:25;;;;;;;;;;;;;;;20.66;47.93555;101370.5;;;;-69
2023/06/18 04:04:25;;;;;;;;;;;;;;;20.62;47.6123;101362.8;;;;-67
2023/06/18 04:09:25;;;;;;;;;;;;;;;20.67;48.21191;101366;;;;-70
2023/06/18 04:14:25;;;;;;;;;;;;;;;20.66;47.99414;101371.6;;;;-68
2023/06/18 04:19:25;;;;;;;;;;;;;;;20.7;48.19238;101371.1;;;;-67
2023/06/18 04:22:03;;;;;;;0.3;0.1;;;;;;;;;;;;;-68
2023/06/18 04:24:25;;;;;;;;;;;;;;;20.73;48.21875;101369.6;;;;-68
2023/06/18 04:29:25;;;;;;;;;;;;;;;20.8;47.90625;101364;;;;-68
2023/06/18 04:34:28;;;;;;;;;;;;;;;20.83;48.17188;101364.4;;;;-67
2023/06/18 04:39:25;;;;;;;;;;;;;;;20.85;48.11621;101371.5;;;;-68
2023/06/18 04:44:25;;;;;;;;;;;;;;;20.89;47.92676;101377.8;;;;-67
2023/06/18 04:49:25;;;;;;;;;;;;;;;20.92;47.55273;101379.1;;;;-69
2023/06/18 04:52:07;;;;;;;0.2;0;;;;;;;;;;;;;-68
2023/06/18 04:54:26;;;;;;;;;;;;;;;20.96;47.6709;101378;;;;-68
2023/06/18 04:59:25;;;;;;;;;;;;;;;20.98;47.25;101379.3;;;;-69
2023/06/18 05:04:27;;;;;;;;;;;;;;;21.05;47.50879;101375.3;;;;-67
2023/06/18 05:09:28;;;;;;;;;;;;;;;21.1;47.45605;101370.3;;;;-70
2023/06/18 05:14:26;;;;;;;;;;;;;;;21.22;47.17285;101367.9;;;;-68
2023/06/18 05:19:25;;;;;;;;;;;;;;;21.34;47.81445;101365.7;;;;-68
2023/06/18 05:22:09;;;;;;;0.2;0;;;;;;;;;;;;;-68
2023/06/18 05:24:25;;;;;;;;;;;;;;;21.53;47.44629;101359.4;;;;-69
2023/06/18 05:29:27;;;;;;;;;;;;;;;21.81;47.24609;101364.5;;;;-68
2023/06/18 05:34:26;;;;;;;;;;;;;;;22.13;46.94727;101371.1;;;;-68
2023/06/18 05:39:25;;;;;;;;;;;;;;;22.37;46.64063;101372.8;;;;-68
2023/06/18 05:44:25;;;;;;;;;;;;;;;22.63;46.62109;101369.5;;;;-71
2023/06/18 05:49:25;;;;;;;;;;;;;;;22.83;46.2168;101380.8;;;;-68
2023/06/18 05:52:14;;;;;;;0.2;0.1;;;;;;;;;;;;;-68
2023/06/18 05:54:25;;;;;;;;;;;;;;;22.91;46.13281;101381.5;;;;-68
2023/06/18 05:59:26;;;;;;;;;;;;;;;22.92;46.67285;101380.1;;;;-69
2023/06/18 06:04:25;;;;;;;;;;;;;;;22.93;46.88184;101384.2;;;;-68
2023/06/18 06:09:25;;;;;;;;;;;;;;;23.06;46.90723;101381.8;;;;-69
2023/06/18 06:14:25;;;;;;;;;;;;;;;23.47;46.17773;101373.6;;;;-67
2023/06/18 06:19:25;;;;;;;;;;;;;;;23.96;45.31934;101381.2;;;;-68
2023/06/18 06:22:16;;;;;;;0.3;0.2;;;;;;;;;;;;;-68
2023/06/18 06:24:25;;;;;;;;;;;;;;;24.52;44.54395;101380;;;;-69
2023/06/18 06:29:25;;;;;;;;;;;;;;;25.02;44.17773;101378.5;;;;-68
2023/06/18 06:34:25;;;;;;;;;;;;;;;25.27;43.91309;101375;;;;-68
2023/06/18 06:39:25;;;;;;;;;;;;;;;25.63;43.33496;101370.1;;;;-68
2023/06/18 06:44:25;;;;;;;;;;;;;;;26.01;42.39844;101367.5;;;;-67
2023/06/18 06:49:25;;;;;;;;;;;;;;;25.91;42.49316;101366;;;;-68
2023/06/18 06:52:20;;;;;;;0.2;0.1;;;;;;;;;;;;;-69
2023/06/18 06:54:29;;;;;;;;;;;;;;;25.87;42.50195;101372;;;;-67
2023/06/18 06:59:25;;;;;;;;;;;;;;;25.85;42.98535;101373.2;;;;-68
2023/06/18 07:04:26;;;;;;;;;;;;;;;25.85;43.05566;101376.8;;;;-67
2023/06/18 07:09:28;;;;;;;;;;;;;;;25.66;43.74219;101381;;;;-69
2023/06/18 07:14:25;;;;;;;;;;;;;;;25.71;43.67773;101385.7;;;;-68
2023/06/18 07:19:25;;;;;;;;;;;;;;;25.78;43.52344;101396.5;;;;-67
2023/06/18 07:22:24;;;;;;;0.3;0.1;;;;;;;;;;;;;-67
2023/06/18 07:24:25;;;;;;;;;;;;;;;25.83;43.50488;101408.9;;;;-67
2023/06/18 07:29:27;;;;;;;;;;;;;;;25.77;44.15918;101416.6;;;;-69
2023/06/18 07:34:25;;;;;;;;;;;;;;;25.61;45.16211;101396.7;;;;-68
2023/06/18 07:39:26;;;;;;;;;;;;;;;25.8;44.8457;101412.2;;;;-68
2023/06/18 07:44:25;;;;;;;;;;;;;;;26.12;43.94922;101394.2;;;;-68
2023/06/18 07:49:28;;;;;;;;;;;;;;;26.25;43.71973;101407.3;;;;-69
2023/06/18 07:52:29;;;;;;;1.6;0.3;;;;;;;;;;;;;-67
2023/06/18 07:54:26;;;;;;;;;;;;;;;26.18;43.96777;101402.3;;;;-70
2023/06/18 07:59:25;;;;;;;;;;;;;;;26.23;43.62402;101398.8;;;;-68
2023/06/18 08:04:25;;;;;;;;;;;;;;;26.24;43.54492;101400.2;;;;-69
2023/06/18 08:09:28;;;;;;;;;;;;;;;26.26;43.01367;101394.1;;;;-68
2023/06/18 08:14:25;;;;;;;;;;;;;;;26.51;42.37598;101393.3;;;;-69
2023/06/18 08:19:25;;;;;;;;;;;;;;;26.66;41.64746;101386.7;;;;-67
2023/06/18 08:22:37;;;;;;;0.3;0.1;;;;;;;;;;;;;-70
2023/06/18 08:24:28;;;;;;;;;;;;;;;26.75;40.77344;101389.1;;;;-68
2023/06/18 08:29:26;;;;;;;;;;;;;;;26.85;40.72363;101381.8;;;;-68
2023/06/18 08:34:25;;;;;;;;;;;;;;;26.91;40.82227;101380.9;;;;-68
2023/06/18 08:39:26;;;;;;;;;;;;;;;26.92;40.4043;101380.7;;;;-67
2023/06/18 08:44:25;;;;;;;;;;;;;;;27.03;40.24023;101373.4;;;;-69
2023/06/18 08:49:26;;;;;;;;;;;;;;;27.09;39.35156;101373.3;;;;-68
2023/06/18 08:52:38;;;;;;;0.2;0.1;;;;;;;;;;;;;-69
2023/06/18 08:54:26;;;;;;;;;;;;;;;27.16;39.35645;101365.9;;;;-68
2023/06/18 08:59:26;;;;;;;;;;;;;;;27.28;39.09961;101365.9;;;;-67
2023/06/18 09:04:29;;;;;;;;;;;;;;;27.39;38.8877;101364.7;;;;-67
2023/06/18 09:09:25;;;;;;;;;;;;;;;27.48;38.81348;101361.1;;;;-68
2023/06/18 09:14:27;;;;;;;;;;;;;;;27.67;38.74902;101357.1;;;;-68
2023/06/18 09:19:25;;;;;;;;;;;;;;;28.06;38.45605;101355.2;;;;-68
2023/06/18 09:22:47;;;;;;;0.2;0.1;;;;;;;;;;;;;-71
2023/06/18 09:24:26;;;;;;;;;;;;;;;28.59;37.36816;101360.7;;;;-69
2023/06/18 09:29:31;;;;;;;;;;;;;;;29.02;36.50488;101363.7;;;;-68
2023/06/18 09:34:25;;;;;;;;;;;;;;;29.13;36.4082;101357.8;;;;-68
2023/06/18 09:39:26;;;;;;;;;;;;;;;29.15;36.35059;101356.5;;;;-68
2023/06/18 09:44:26;;;;;;;;;;;;;;;29.19;36.47168;101357.2;;;;-69
2023/06/18 09:49:27;;;;;;;;;;;;;;;29.23;36.60352;101353.7;;;;-72
2023/06/18 09:52:50;;;;;;;0.3;0.1;;;;;;;;;;;;;-69
2023/06/18 09:54:25;;;;;;;;;;;;;;;29.27;36.43066;101354.7;;;;-67
2023/06/18 09:59:26;;;;;;;;;;;;;;;29.31;36.24707;101353.6;;;;-68
2023/06/18 10:04:28;;;;;;;;;;;;;;;29.36;36.23926;101353.2;;;;-67
2023/06/18 10:09:28;;;;;;;;;;;;;;;29.38;36.18262;101350;;;;-70
2023/06/18 10:14:26;;;;;;;;;;;;;;;29.4;35.97266;101349.3;;;;-68
2023/06/18 10:19:28;;;;;;;;;;;;;;;29.4;35.99707;101345.8;;;;-67
2023/06/18 10:22:52;;;;;;;0.2;0;;;;;;;;;;;;;-68
2023/06/18 10:24:26;;;;;;;;;;;;;;;29.44;35.97656;101339.4;;;;-69
2023/06/18 10:29:25;;;;;;;;;;;;;;;29.51;35.4209;101336.1;;;;-69
2023/06/18 10:34:25;;;;;;;;;;;;;;;29.69;35.65625;101328.1;;;;-69
2023/06/18 10:39:25;;;;;;;;;;;;;;;29.96;35.26758;101318.2;;;;-69
2023/06/18 10:44:50;;;;;;;;;;;;;;;30.22;34.58496;101312.8;;;;-68
2023/06/18 10:49:25;;;;;;;;;;;;;;;30.44;33.96777;101313.2;;;;-69
2023/06/18 10:52:59;;;;;;;0.2;0;;;;;;;;;;;;;-69
2023/06/18 10:54:37;;;;;;;;;;;;;;;30.59;33.90918;101307.5;;;;-69
2023/06/18 10:59:40;;;;;;;;;;;;;;;30.71;33.4834;101313.2;;;;-67
2023/06/18 11:04:26;;;;;;;;;;;;;;;30.85;34.1748;101309.7;;;;-68
2023/06/18 11:09:25;;;;;;;;;;;;;;;30.92;33.88574;101309.9;;;;-70
2023/06/18 11:14:25;;;;;;;;;;;;;;;30.92;33.72266;101301.1;;;;-69
2023/06/18 11:19:25;;;;;;;;;;;;;;;30.92;33.73438;101298.7;;;;-68
2023/06/18 11:23:05;;;;;;;0.7;0.1;;;;;;;;;;;;;-69
2023/06/18 11:24:25;;;;;;;;;;;;;;;30.84;33.75195;101302.1;;;;-68
2023/06/18 11:29:26;;;;;;;;;;;;;;;30.79;33.8418;101303.4;;;;-67
2023/06/18 11:34:25;;;;;;;;;;;;;;;30.63;33.6543;101300.2;;;;-72
2023/06/18 11:39:27;;;;;;;;;;;;;;;30.53;33.58887;101304.3;;;;-67
2023/06/18 11:44:31;;;;;;;;;;;;;;;30.55;33.53027;101300.3;;;;-68
2023/06/18 11:49:25;;;;;;;;;;;;;;;30.62;33.24121;101297.4;;;;-70
2023/06/18 11:53:10;;;;;;;0.5;0.3;;;;;;;;;;;;;-67
2023/06/18 11:54:28;;;;;;;;;;;;;;;30.64;33.39648;101298.4;;;;-69
2023/06/18 11:59:25;;;;;;;;;;;;;;;30.75;33.19336;101293.4;;;;-69
2023/06/18 12:04:25;;;;;;;;;;;;;;;30.78;32.66602;101290.3;;;;-71
2023/06/18 12:09:25;;;;;;;;;;;;;;;30.82;32.69336;101282.9;;;;-70
2023/06/18 12:14:31;;;;;;;;;;;;;;;30.84;32.72949;101278.4;;;;-69
2023/06/18 12:19:25;;;;;;;;;;;;;;;30.8;32.87988;101280;;;;-71
2023/06/18 12:23:13;;;;;;;0.2;0;;;;;;;;;;;;;-68
2023/06/18 12:24:28;;;;;;;;;;;;;;;30.76;33.00586;101276.2;;;;-68
2023/06/18 12:29:28;;;;;;;;;;;;;;;30.64;32.86816;101272.6;;;;-71
2023/06/18 12:34:31;;;;;;;;;;;;;;;30.57;32.56934;101269.3;;;;-70
2023/06/18 12:39:25;;;;;;;;;;;;;;;30.48;33.11523;101266.5;;;;-68
2023/06/18 12:44:27;;;;;;;;;;;;;;;30.47;32.65625;101271.4;;;;-70
2023/06/18 12:49:26;;;;;;;;;;;;;;;30.47;32.76172;101269.6;;;;-69
2023/06/18 12:53:28;;;;;;;0.2;0;;;;;;;;;;;;;-70
2023/06/18 12:54:35;;;;;;;;;;;;;;;30.43;32.66504;101265.3;;;;-67
2023/06/18 12:59:26;;;;;;;;;;;;;;;30.39;32.9082;101258;;;;-68
2023/06/18 13:04:25;;;;;;;;;;;;;;;30.34;32.99902;101257.7;;;;-68
2023/06/18 13:09:26;;;;;;;;;;;;;;;30.27;32.99414;101260.5;;;;-69
2023/06/18 13:14:25;;;;;;;;;;;;;;;30.26;33.0166;101249.7;;;;-68
2023/06/18 13:19:25;;;;;;;;;;;;;;;30.24;33.02637;101239.7;;;;-68
2023/06/18 13:23:28;;;;;;;0.2;0;;;;;;;;;;;;;-68
2023/06/18 13:24:26;;;;;;;;;;;;;;;30.26;32.91113;101239;;;;-67
2023/06/18 13:29:27;;;;;;;;;;;;;;;30.24;32.97949;101233.2;;;;-70
2023/06/18 13:34:25;;;;;;;;;;;;;;;30.21;32.91895;101225.4;;;;-69
2023/06/18 13:39:25;;;;;;;;;;;;;;;30.21;32.97754;101227.2;;;;-67
2023/06/18 13:44:26;;;;;;;;;;;;;;;30.09;33.0625;101224.8;;;;-69
2023/06/18 13:49:25;;;;;;;;;;;;;;;30.11;33.22852;101217.8;;;;-70
2023/06/18 13:53:31;;;;;;;1.4;0.4;;;;;;;;;;;;;-73
2023/06/18 13:54:25;;;;;;;;;;;;;;;30.03;33.32813;101221.4;;;;-69
2023/06/18 13:59:26;;;;;;;;;;;;;;;30;33.51367;101219.8;;;;-69
2023/06/18 14:04:26;;;;;;;;;;;;;;;30.07;33.43652;101216.2;;;;-68
2023/06/18 14:09:25;;;;;;;;;;;;;;;30.07;33.4834;101220.6;;;;-68
2023/06/18 14:14:25;;;;;;;;;;;;;;;30.09;33.39063;101219.5;;;;-69
2023/06/18 14:19:28;;;;;;;;;;;;;;;30.02;33.6084;101215.7;;;;-70
2023/06/18 14:23:34;;;;;;;0.2;0.1;;;;;;;;;;;;;-71
2023/06/18 14:24:25;;;;;;;;;;;;;;;29.98;33.98145;101215.3;;;;-69
2023/06/18 14:29:25;;;;;;;;;;;;;;;29.95;34.20117;101211.3;;;;-70
2023/06/18 14:34:25;;;;;;;;;;;;;;;29.85;34.16895;101209.6;;;;-68
2023/06/18 14:39:28;;;;;;;;;;;;;;;29.71;33.71387;101208.4;;;;-70
2023/06/18 14:44:26;;;;;;;;;;;;;;;29.48;33.82617;101211.5;;;;-69
2023/06/18 14:49:26;;;;;;;;;;;;;;;29.35;34.01465;101207;;;;-70
2023/06/18 14:53:39;;;;;;;0.2;0;;;;;;;;;;;;;-70
2023/06/18 14:54:25;;;;;;;;;;;;;;;29.21;34.22754;101213.6;;;;-68
2023/06/18 14:59:25;;;;;;;;;;;;;;;29.07;34.40332;101206.3;;;;-68
2023/06/18 15:04:25;;;;;;;;;;;;;;;28.98;34.44434;101196.2;;;;-70
2023/06/18 15:09:25;;;;;;;;;;;;;;;29.03;34.22559;101185;;;;-71
2023/06/18 15:14:25;;;;;;;;;;;;;;;28.98;33.94141;101172.9;;;;-72
2023/06/18 15:19:25;;;;;;;;;;;;;;;28.89;33.94629;101163.5;;;;-71
2023/06/18 15:23:46;;;;;;;0.4;0.1;;;;;;;;;;;;;-72
2023/06/18 15:24:25;;;;;;;;;;;;;;;28.83;33.86035;101164.2;;;;-71
2023/06/18 15:29:25;;;;;;;;;;;;;;;28.76;33.86621;101169.6;;;;-72
2023/06/18 15:34:26;;;;;;;;;;;;;;;28.7;33.9082;101172.4;;;;-73
2023/06/18 15:39:25;;;;;;;;;;;;;;;28.61;34.01855;101172.7;;;;-72
2023/06/18 15:44:25;;;;;;;;;;;;;;;28.55;34.17773;101169.4;;;;-67
2023/06/18 15:49:25;;;;;;;;;;;;;;;28.6;34.25098;101159.9;;;;-69
2023/06/18 15:53:49;;;;;;;0.2;0;;;;;;;;;;;;;-71
2023/06/18 15:54:25;;;;;;;;;;;;;;;28.87;34.24805;101153.9;;;;-69
2023/06/18 15:59:28;;;;;;;;;;;;;;;29.16;34.11816;101150.8;;;;-70
2023/06/18 16:04:25;;;;;;;;;;;;;;;29.42;34.00879;101144.5;;;;-69
2023/06/18 16:09:25;;;;;;;;;;;;;;;29.64;33.82617;101135;;;;-68
2023/06/18 16:14:25;;;;;;;;;;;;;;;29.94;33.98926;101135.2;;;;-68
2023/06/18 16:19:25;;;;;;;;;;;;;;;30;33.29004;101141.9;;;;-69
2023/06/18 16:23:55;;;;;;;0.2;0.1;;;;;;;;;;;;;-68
2023/06/18 16:29:25;;;;;;;;;;;;;;;29.77;34.28125;101137.8;;;;-69
2023/06/18 16:34:25;;;;;;;;;;;;;;;29.54;34.56836;101145.5;;;;-70
2023/06/18 16:39:27;;;;;;;;;;;;;;;29.37;34.88379;101142.2;;;;-67
2023/06/18 16:44:25;;;;;;;;;;;;;;;29.24;34.95508;101138.1;;;;-69
2023/06/18 16:49:28;;;;;;;;;;;;;;;29.05;35.04492;101137.3;;;;-70
2023/06/18 16:54:02;;;;;;;0.2;0.1;;;;;;;;;;;;;-71
2023/06/18 16:54:25;;;;;;;;;;;;;;;28.88;35.16113;101136.8;;;;-70
2023/06/18 16:59:33;;;;;;;;;;;;;;;28.68;35.12207;101123.2;;;;-68
2023/06/18 17:04:33;;;;;;;;;;;;;;;28.53;35.22754;101128.4;;;;-68
2023/06/18 17:09:31;;;;;;;;;;;;;;;28.42;35.18359;101129.9;;;;-68
2023/06/18 17:14:26;;;;;;;;;;;;;;;28.28;35.28906;101125.4;;;;-67
2023/06/18 17:19:27;;;;;;;;;;;;;;;28.24;35.22754;101118.8;;;;-67
2023/06/18 17:24:16;;;;;;;0.2;0;;;;;;;;;;;;;-67
2023/06/18 17:24:26;;;;;;;;;;;;;;;28.18;35.74805;101120.6;;;;-69
2023/06/18 17:29:27;;;;;;;;;;;;;;;28.11;35.36914;101115;;;;-67
2023/06/18 17:34:31;;;;;;;;;;;;;;;28.05;35.36426;101111.2;;;;-68
2023/06/18 17:39:29;;;;;;;;;;;;;;;28;35.46582;101104.4;;;;-67
2023/06/18 17:44:29;;;;;;;;;;;;;;;27.91;35.54102;101096.6;;;;-68
2023/06/18 17:49:27;;;;;;;;;;;;;;;27.74;35.67871;101092.8;;;;-71
2023/06/18 17:54:12;;;;;;;0.3;0.1;;;;;;;;;;;;;-69
2023/06/18 17:54:34;;;;;;;;;;;;;;;27.64;35.60059;101089.8;;;;-67
2023/06/18 17:59:25;;;;;;;;;;;;;;;27.47;35.68066;101082.2;;;;-67
2023/06/18 18:04:26;;;;;;;;;;;;;;;27.29;36.12109;101074.3;;;;-68
2023/06/18 18:09:25;;;;;;;;;;;;;;;27.19;35.66992;101066.7;;;;-67
2023/06/18 18:14:37;;;;;;;;;;;;;;;27.04;36.29883;101057.2;;;;-68
2023/06/18 18:19:25;;;;;;;;;;;;;;;26.94;35.69727;101055.5;;;;-67
2023/06/18 18:24:17;;;;;;;0.2;0.1;;;;;;;;;;;;;-67
2023/06/18 18:24:30;;;;;;;;;;;;;;;26.83;36.18945;101049.6;;;;-65
2023/06/18 18:29:30;;;;;;;;;;;;;;;26.77;36.31152;101039;;;;-66
2023/06/18 18:34:25;;;;;;;;;;;;;;;26.7;36.31738;101025.9;;;;-67
2023/06/18 18:39:27;;;;;;;;;;;;;;;26.62;36.59082;101016.8;;;;-68
2023/06/18 18:44:29;;;;;;;;;;;;;;;26.58;36.50586;101011.8;;;;-66
2023/06/18 18:54:22;;;;;;;0.3;0.1;;;;;;;;;;;;;-66
2023/06/18 18:54:35;;;;;;;;;;;;;;;26.46;36.58789;101004.2;;;;-68
2023/06/18 18:59:25;;;;;;;;;;;;;;;26.39;36.57227;101013;;;;-66
2023/06/18 19:04:32;;;;;;;;;;;;;;;26.29;36.75;101017.6;;;;-69
2023/06/18 19:09:29;;;;;;;;;;;;;;;26.19;36.84668;101024.9;;;;-66
2023/06/18 19:18:11;;;;;;;;;;;;;;;26.05;36.83398;101025.6;;;;-67
2023/06/18 19:23:14;;;;;;;;;;;;;;;25.95;36.81445;101023.1;;;;-67
2023/06/18 19:24:26;;;;;;;0.2;0;;;;;;;;;;;;;-67
2023/06/18 19:28:11;;;;;;;;;;;;;;;25.87;37.12109;101025.4;;;;-66
2023/06/18 19:33:10;;;;;;;;;;;;;;;25.78;37.05566;101033.9;;;;-67
2023/06/18 19:38:10;;;;;;;;;;;;;;;25.69;37.31543;101041.5;;;;-66
2023/06/18 19:43:11;;;;;;;;;;;;;;;25.6;37.34277;101043.3;;;;-68
2023/06/18 19:48:10;;;;;;;;;;;;;;;25.5;37.7168;101043.8;;;;-66
2023/06/18 19:53:10;;;;;;;;;;;;;;;25.44;37.5957;101044.9;;;;-67
2023/06/18 19:54:27;;;;;;;0.2;0;;;;;;;;;;;;;-67
2023/06/18 19:58:10;;;;;;;;;;;;;;;25.35;37.75098;101052.1;;;;-66
2023/06/18 20:03:10;;;;;;;;;;;;;;;25.27;38.32324;101050.4;;;;-67
2023/06/18 20:08:10;;;;;;;;;;;;;;;25.16;38.67188;101048.4;;;;-68
2023/06/18 20:13:10;;;;;;;;;;;;;;;25.09;38.55078;101047.3;;;;-67
2023/06/18 20:18:11;;;;;;;;;;;;;;;25.02;38.83398;101040.6;;;;-67
2023/06/18 20:23:12;;;;;;;;;;;;;;;24.94;39.04688;101033;;;;-67
2023/06/18 20:24:31;;;;;;;0.2;0.1;;;;;;;;;;;;;-67
2023/06/18 20:28:11;;;;;;;;;;;;;;;24.87;39.02832;101032.1;;;;-67
2023/06/18 20:33:11;;;;;;;;;;;;;;;24.79;39.79785;101024.7;;;;-66
2023/06/18 20:38:11;;;;;;;;;;;;;;;24.73;39.3877;101012.1;;;;-67
2023/06/18 20:43:12;;;;;;;;;;;;;;;24.67;39.74121;101018.5;;;;-67
2023/06/18 20:48:11;;;;;;;;;;;;;;;24.6;39.91895;101017;;;;-68
2023/06/18 20:53:10;;;;;;;;;;;;;;;24.53;39.99414;101018.2;;;;-69
2023/06/18 20:54:34;;;;;;;0.2;0.1;;;;;;;;;;;;;-68
2023/06/18 20:58:11;;;;;;;;;;;;;;;24.48;40.07031;101004.6;;;;-69
2023/06/18 21:03:13;;;;;;;;;;;;;;;24.38;40.52441;101004.6;;;;-67
2023/06/18 21:08:10;;;;;;;;;;;;;;;24.31;40.40234;100993.7;;;;-72
2023/06/18 21:13:16;;;;;;;;;;;;;;;24.18;40.99023;100985.6;;;;-68
2023/06/18 21:18:10;;;;;;;;;;;;;;;24.1;40.99512;100979;;;;-68
2023/06/18 21:23:10;;;;;;;;;;;;;;;24.03;41.10352;100977.2;;;;-70
2023/06/18 21:24:38;;;;;;;0.3;0.1;;;;;;;;;;;;;-68
2023/06/18 21:28:10;;;;;;;;;;;;;;;23.93;41.11816;100970;;;;-70
2023/06/18 21:33:10;;;;;;;;;;;;;;;23.87;41.40137;100968;;;;-68
2023/06/18 21:38:10;;;;;;;;;;;;;;;23.85;41.65234;100967.6;;;;-69
2023/06/18 21:43:10;;;;;;;;;;;;;;;23.79;42.23535;100957.8;;;;-68
2023/06/18 21:48:10;;;;;;;;;;;;;;;23.72;42.37891;100950;;;;-69
2023/06/18 21:53:11;;;;;;;;;;;;;;;23.7;42.31836;100952;;;;-68
2023/06/18 21:54:42;;;;;;;0.3;0.1;;;;;;;;;;;;;-68
2023/06/18 21:58:10;;;;;;;;;;;;;;;23.67;42.48828;100945.7;;;;-69
2023/06/18 22:03:10;;;;;;;;;;;;;;;23.62;42.39258;100942.3;;;;-68
2023/06/18 22:08:10;;;;;;;;;;;;;;;23.61;42.54199;100929.7;;;;-68
2023/06/18 22:13:10;;;;;;;;;;;;;;;23.59;42.32129;100918.8;;;;-68
2023/06/18 22:18:10;;;;;;;;;;;;;;;23.58;42.80469;100903.3;;;;-67
2023/06/18 22:23:10;;;;;;;;;;;;;;;23.56;42.61719;100899.7;;;;-67
2023/06/18 22:24:46;;;;;;;0.6;0.2;;;;;;;;;;;;;-68
2023/06/18 22:28:10;;;;;;;;;;;;;;;23.53;42.91406;100890;;;;-69
2023/06/18 22:33:10;;;;;;;;;;;;;;;23.52;42.72852;100875.4;;;;-68
2023/06/18 22:38:10;;;;;;;;;;;;;;;23.49;42.97852;100870.5;;;;-69
2023/06/18 22:43:15;;;;;;;;;;;;;;;23.44;42.97461;100859.7;;;;-70
2023/06/18 22:48:10;;;;;;;;;;;;;;;23.44;43.1709;100851.9;;;;-69
2023/06/18 22:53:10;;;;;;;;;;;;;;;23.43;43.46875;100841.4;;;;-68
2023/06/18 22:54:51;;;;;;;0.3;0.1;;;;;;;;;;;;;-68
2023/06/18 22:58:13;;;;;;;;;;;;;;;23.41;43.39844;100842.5;;;;-69
2023/06/18 23:03:10;;;;;;;;;;;;;;;23.38;43.67188;100829.5;;;;-68
2023/06/18 23:08:11;;;;;;;;;;;;;;;23.37;43.40527;100816.5;;;;-68
2023/06/18 23:13:10;;;;;;;;;;;;;;;23.35;43.63379;100818.2;;;;-69
2023/06/18 23:18:11;;;;;;;;;;;;;;;23.34;43.4375;100807.6;;;;-68
2023/06/18 23:23:13;;;;;;;;;;;;;;;23.29;43.74316;100792.2;;;;-67
2023/06/18 23:24:54;;;;;;;0.5;0.2;;;;;;;;;;;;;-68
2023/06/18 23:28:14;;;;;;;;;;;;;;;23.26;44.05078;100789.6;;;;-68
2023/06/18 23:33:10;;;;;;;;;;;;;;;23.26;44.52344;100779.1;;;;-68
2023/06/18 23:38:11;;;;;;;;;;;;;;;23.22;44.37012;100770.1;;;;-68
2023/06/18 23:43:10;;;;;;;;;;;;;;;23.18;44.15918;100770.6;;;;-68
2023/06/18 23:48:10;;;;;;;;;;;;;;;23.17;44.41016;100779.8;;;;-68
2023/06/18 23:53:10;;;;;;;;;;;;;;;23.13;44.40723;100784.5;;;;-68
2023/06/18 23:54:56;;;;;;;0.3;0.1;;;;;;;;;;;;;-68
2023/06/18 23:58:10;;;;;;;;;;;;;;;23.15;44.62598;100790.9;;;;-68
